sensor_id;sensor_type;location;lat;lon;timestamp;P1;durP1;ratioP1;P2;durP2;ratioP2
65244;SDS011;51846;48.692;2.382;2022-07-26T00:01:50;3.95;;;1.13;;
65244;SDS011;51846;48.692;2.382;2022-07-26T00:04:15;4.03;;;1.25;;
65244;SDS011;51846;48.692;2.382;2022-07-26T00:06:41;2.08;;;1.10;;
65244;SDS011;51846;48.692;2.382;2022-07-26T00:09:06;2.65;;;1.10;;
65244;SDS011;51846;48.692;2.382;2022-07-26T00:11:32;2.45;;;1.20;;
65244;SDS011;51846;48.692;2.382;2022-07-26T00:13:58;3.53;;;1.30;;
65244;SDS011;51846;48.692;2.382;2022-07-26T00:16:24;3.85;;;1.20;;
65244;SDS011;51846;48.692;2.382;2022-07-26T00:18:50;3.03;;;1.23;;
65244;SDS011;51846;48.692;2.382;2022-07-26T00:21:15;3.85;;;1.20;;
65244;SDS011;51846;48.692;2.382;2022-07-26T00:23:40;2.38;;;1.23;;
65244;SDS011;51846;48.692;2.382;2022-07-26T00:26:06;3.35;;;1.30;;
65244;SDS011;51846;48.692;2.382;2022-07-26T00:28:31;5.72;;;1.45;;
65244;SDS011;51846;48.692;2.382;2022-07-26T00:30:57;4.22;;;1.40;;
65244;SDS011;51846;48.692;2.382;2022-07-26T00:33:22;4.35;;;1.30;;
65244;SDS011;51846;48.692;2.382;2022-07-26T00:35:47;6.15;;;1.30;;
65244;SDS011;51846;48.692;2.382;2022-07-26T00:38:13;2.72;;;1.13;;
65244;SDS011;51846;48.692;2.382;2022-07-26T00:40:38;4.65;;;1.40;;
65244;SDS011;51846;48.692;2.382;2022-07-26T00:43:03;4.28;;;1.33;;
65244;SDS011;51846;48.692;2.382;2022-07-26T00:45:29;4.70;;;1.27;;
65244;SDS011;51846;48.692;2.382;2022-07-26T00:47:54;6.40;;;1.40;;
65244;SDS011;51846;48.692;2.382;2022-07-26T00:50:19;4.70;;;1.25;;
65244;SDS011;51846;48.692;2.382;2022-07-26T00:52:46;2.83;;;1.10;;
65244;SDS011;51846;48.692;2.382;2022-07-26T00:55:13;3.90;;;1.20;;
65244;SDS011;51846;48.692;2.382;2022-07-26T00:57:39;3.85;;;1.30;;
65244;SDS011;51846;48.692;2.382;2022-07-26T01:00:06;3.38;;;1.20;;
65244;SDS011;51846;48.692;2.382;2022-07-26T01:02:34;4.00;;;1.70;;
65244;SDS011;51846;48.692;2.382;2022-07-26T01:05:00;4.10;;;1.40;;
65244;SDS011;51846;48.692;2.382;2022-07-26T01:07:26;4.28;;;1.23;;
65244;SDS011;51846;48.692;2.382;2022-07-26T01:09:52;4.75;;;1.40;;
65244;SDS011;51846;48.692;2.382;2022-07-26T01:12:18;3.90;;;1.30;;
65244;SDS011;51846;48.692;2.382;2022-07-26T01:14:43;3.78;;;1.20;;
65244;SDS011;51846;48.692;2.382;2022-07-26T01:17:09;4.13;;;1.40;;
65244;SDS011;51846;48.692;2.382;2022-07-26T01:19:36;3.78;;;1.38;;
65244;SDS011;51846;48.692;2.382;2022-07-26T01:22:01;3.55;;;1.55;;
65244;SDS011;51846;48.692;2.382;2022-07-26T01:24:27;4.78;;;1.67;;
65244;SDS011;51846;48.692;2.382;2022-07-26T01:26:52;2.58;;;1.30;;
65244;SDS011;51846;48.692;2.382;2022-07-26T01:29:19;4.82;;;1.45;;
65244;SDS011;51846;48.692;2.382;2022-07-26T01:31:45;3.55;;;1.30;;
65244;SDS011;51846;48.692;2.382;2022-07-26T01:34:10;4.28;;;1.63;;
65244;SDS011;51846;48.692;2.382;2022-07-26T01:36:36;5.65;;;1.45;;
65244;SDS011;51846;48.692;2.382;2022-07-26T01:39:01;3.20;;;1.27;;
65244;SDS011;51846;48.692;2.382;2022-07-26T01:41:27;4.97;;;1.58;;
65244;SDS011;51846;48.692;2.382;2022-07-26T01:43:53;4.88;;;1.30;;
65244;SDS011;51846;48.692;2.382;2022-07-26T01:46:18;3.70;;;1.40;;
65244;SDS011;51846;48.692;2.382;2022-07-26T01:48:43;5.80;;;1.38;;
65244;SDS011;51846;48.692;2.382;2022-07-26T01:51:09;5.47;;;1.60;;
65244;SDS011;51846;48.692;2.382;2022-07-26T01:53:34;6.68;;;1.40;;
65244;SDS011;51846;48.692;2.382;2022-07-26T01:55:59;4.53;;;1.40;;
65244;SDS011;51846;48.692;2.382;2022-07-26T01:58:25;11.45;;;1.50;;
65244;SDS011;51846;48.692;2.382;2022-07-26T02:00:50;2.85;;;1.27;;
65244;SDS011;51846;48.692;2.382;2022-07-26T02:03:16;2.83;;;1.17;;
65244;SDS011;51846;48.692;2.382;2022-07-26T02:05:41;3.95;;;1.40;;
65244;SDS011;51846;48.692;2.382;2022-07-26T02:08:06;3.75;;;1.30;;
65244;SDS011;51846;48.692;2.382;2022-07-26T02:10:32;4.93;;;1.30;;
65244;SDS011;51846;48.692;2.382;2022-07-26T02:13:16;4.35;;;1.30;;
65244;SDS011;51846;48.692;2.382;2022-07-26T02:15:42;4.30;;;1.40;;
65244;SDS011;51846;48.692;2.382;2022-07-26T02:18:07;4.40;;;1.40;;
65244;SDS011;51846;48.692;2.382;2022-07-26T02:20:33;4.18;;;1.38;;
65244;SDS011;51846;48.692;2.382;2022-07-26T02:23:02;3.95;;;1.30;;
65244;SDS011;51846;48.692;2.382;2022-07-26T02:25:28;3.30;;;1.40;;
65244;SDS011;51846;48.692;2.382;2022-07-26T02:27:53;3.25;;;1.30;;
65244;SDS011;51846;48.692;2.382;2022-07-26T02:30:19;3.78;;;1.20;;
65244;SDS011;51846;48.692;2.382;2022-07-26T02:32:44;2.35;;;1.30;;
65244;SDS011;51846;48.692;2.382;2022-07-26T02:35:10;3.72;;;1.20;;
65244;SDS011;51846;48.692;2.382;2022-07-26T02:37:36;5.22;;;1.25;;
65244;SDS011;51846;48.692;2.382;2022-07-26T02:40:02;3.92;;;1.40;;
65244;SDS011;51846;48.692;2.382;2022-07-26T02:42:27;6.10;;;1.20;;
65244;SDS011;51846;48.692;2.382;2022-07-26T02:44:53;4.05;;;1.30;;
65244;SDS011;51846;48.692;2.382;2022-07-26T02:47:18;3.90;;;1.27;;
65244;SDS011;51846;48.692;2.382;2022-07-26T02:49:44;4.43;;;1.30;;
65244;SDS011;51846;48.692;2.382;2022-07-26T02:52:09;5.65;;;1.30;;
65244;SDS011;51846;48.692;2.382;2022-07-26T02:54:35;3.83;;;1.40;;
65244;SDS011;51846;48.692;2.382;2022-07-26T02:57:00;5.20;;;1.48;;
65244;SDS011;51846;48.692;2.382;2022-07-26T02:59:26;5.93;;;1.50;;
65244;SDS011;51846;48.692;2.382;2022-07-26T03:01:51;2.70;;;1.23;;
65244;SDS011;51846;48.692;2.382;2022-07-26T03:04:16;5.63;;;1.30;;
65244;SDS011;51846;48.692;2.382;2022-07-26T03:06:42;5.03;;;1.70;;
65244;SDS011;51846;48.692;2.382;2022-07-26T03:09:07;4.70;;;1.48;;
65244;SDS011;51846;48.692;2.382;2022-07-26T03:11:32;5.80;;;1.40;;
65244;SDS011;51846;48.692;2.382;2022-07-26T03:13:58;5.65;;;1.40;;
65244;SDS011;51846;48.692;2.382;2022-07-26T03:16:23;4.68;;;1.50;;
65244;SDS011;51846;48.692;2.382;2022-07-26T03:18:49;5.88;;;1.38;;
65244;SDS011;51846;48.692;2.382;2022-07-26T03:21:14;7.07;;;1.40;;
65244;SDS011;51846;48.692;2.382;2022-07-26T03:23:39;7.15;;;1.40;;
65244;SDS011;51846;48.692;2.382;2022-07-26T03:26:05;4.40;;;1.58;;
65244;SDS011;51846;48.692;2.382;2022-07-26T03:28:31;4.03;;;1.35;;
65244;SDS011;51846;48.692;2.382;2022-07-26T03:30:57;4.65;;;1.52;;
65244;SDS011;51846;48.692;2.382;2022-07-26T03:33:22;5.93;;;1.48;;
65244;SDS011;51846;48.692;2.382;2022-07-26T03:35:48;5.25;;;1.33;;
65244;SDS011;51846;48.692;2.382;2022-07-26T03:38:13;4.60;;;1.60;;
65244;SDS011;51846;48.692;2.382;2022-07-26T03:40:38;7.97;;;1.70;;
65244;SDS011;51846;48.692;2.382;2022-07-26T03:43:04;8.43;;;1.48;;
65244;SDS011;51846;48.692;2.382;2022-07-26T03:45:29;3.95;;;1.40;;
65244;SDS011;51846;48.692;2.382;2022-07-26T03:47:55;6.13;;;1.40;;
65244;SDS011;51846;48.692;2.382;2022-07-26T03:50:20;4.85;;;1.60;;
65244;SDS011;51846;48.692;2.382;2022-07-26T03:52:46;5.47;;;1.60;;
65244;SDS011;51846;48.692;2.382;2022-07-26T03:55:11;4.68;;;1.60;;
65244;SDS011;51846;48.692;2.382;2022-07-26T03:57:55;4.95;;;1.50;;
65244;SDS011;51846;48.692;2.382;2022-07-26T04:00:21;8.07;;;1.65;;
65244;SDS011;51846;48.692;2.382;2022-07-26T04:02:46;5.93;;;1.42;;
65244;SDS011;51846;48.692;2.382;2022-07-26T04:05:11;4.55;;;1.65;;
65244;SDS011;51846;48.692;2.382;2022-07-26T04:07:44;5.85;;;1.60;;
65244;SDS011;51846;48.692;2.382;2022-07-26T04:10:10;4.65;;;1.30;;
65244;SDS011;51846;48.692;2.382;2022-07-26T04:12:36;5.60;;;1.70;;
65244;SDS011;51846;48.692;2.382;2022-07-26T04:15:02;8.77;;;1.42;;
65244;SDS011;51846;48.692;2.382;2022-07-26T04:17:28;6.30;;;1.70;;
65244;SDS011;51846;48.692;2.382;2022-07-26T04:19:54;5.78;;;1.50;;
65244;SDS011;51846;48.692;2.382;2022-07-26T04:22:19;4.82;;;1.60;;
65244;SDS011;51846;48.692;2.382;2022-07-26T04:24:45;6.18;;;1.55;;
65244;SDS011;51846;48.692;2.382;2022-07-26T04:27:10;9.63;;;2.00;;
65244;SDS011;51846;48.692;2.382;2022-07-26T04:29:35;4.55;;;1.52;;
65244;SDS011;51846;48.692;2.382;2022-07-26T04:32:01;3.88;;;1.50;;
65244;SDS011;51846;48.692;2.382;2022-07-26T04:34:26;5.15;;;1.40;;
65244;SDS011;51846;48.692;2.382;2022-07-26T04:36:51;6.72;;;1.50;;
65244;SDS011;51846;48.692;2.382;2022-07-26T04:39:16;5.68;;;1.55;;
65244;SDS011;51846;48.692;2.382;2022-07-26T04:41:48;7.80;;;1.80;;
65244;SDS011;51846;48.692;2.382;2022-07-26T04:44:13;6.55;;;1.70;;
65244;SDS011;51846;48.692;2.382;2022-07-26T04:46:39;6.85;;;1.98;;
65244;SDS011;51846;48.692;2.382;2022-07-26T04:49:04;9.48;;;1.60;;
65244;SDS011;51846;48.692;2.382;2022-07-26T04:51:29;6.70;;;1.67;;
65244;SDS011;51846;48.692;2.382;2022-07-26T04:53:55;7.93;;;1.85;;
65244;SDS011;51846;48.692;2.382;2022-07-26T04:56:20;6.45;;;1.60;;
65244;SDS011;51846;48.692;2.382;2022-07-26T04:58:45;5.93;;;1.55;;
65244;SDS011;51846;48.692;2.382;2022-07-26T05:01:11;7.05;;;1.63;;
65244;SDS011;51846;48.692;2.382;2022-07-26T05:03:36;5.47;;;1.63;;
65244;SDS011;51846;48.692;2.382;2022-07-26T05:06:02;8.70;;;1.60;;
65244;SDS011;51846;48.692;2.382;2022-07-26T05:08:28;7.22;;;1.58;;
65244;SDS011;51846;48.692;2.382;2022-07-26T05:10:53;5.28;;;1.70;;
65244;SDS011;51846;48.692;2.382;2022-07-26T05:13:19;8.60;;;1.83;;
65244;SDS011;51846;48.692;2.382;2022-07-26T05:15:44;8.95;;;1.70;;
65244;SDS011;51846;48.692;2.382;2022-07-26T05:18:10;7.35;;;1.75;;
65244;SDS011;51846;48.692;2.382;2022-07-26T05:20:35;7.63;;;1.70;;
65244;SDS011;51846;48.692;2.382;2022-07-26T05:23:02;6.15;;;1.83;;
65244;SDS011;51846;48.692;2.382;2022-07-26T05:25:28;6.25;;;1.60;;
65244;SDS011;51846;48.692;2.382;2022-07-26T05:27:53;5.25;;;1.50;;
65244;SDS011;51846;48.692;2.382;2022-07-26T05:30:19;5.43;;;1.60;;
65244;SDS011;51846;48.692;2.382;2022-07-26T05:32:45;5.53;;;1.73;;
65244;SDS011;51846;48.692;2.382;2022-07-26T05:35:11;11.05;;;2.10;;
65244;SDS011;51846;48.692;2.382;2022-07-26T05:37:36;5.80;;;1.60;;
65244;SDS011;51846;48.692;2.382;2022-07-26T05:40:03;9.20;;;2.08;;
65244;SDS011;51846;48.692;2.382;2022-07-26T05:42:29;4.30;;;1.50;;
65244;SDS011;51846;48.692;2.382;2022-07-26T05:44:55;6.88;;;1.92;;
65244;SDS011;51846;48.692;2.382;2022-07-26T05:47:20;12.50;;;2.00;;
65244;SDS011;51846;48.692;2.382;2022-07-26T05:49:45;5.22;;;1.90;;
65244;SDS011;51846;48.692;2.382;2022-07-26T05:52:11;7.93;;;2.25;;
65244;SDS011;51846;48.692;2.382;2022-07-26T05:54:36;6.05;;;1.95;;
65244;SDS011;51846;48.692;2.382;2022-07-26T05:57:02;6.00;;;1.77;;
65244;SDS011;51846;48.692;2.382;2022-07-26T05:59:28;6.60;;;2.00;;
65244;SDS011;51846;48.692;2.382;2022-07-26T06:01:53;9.05;;;1.90;;
65244;SDS011;51846;48.692;2.382;2022-07-26T06:04:22;7.95;;;1.95;;
65244;SDS011;51846;48.692;2.382;2022-07-26T06:06:48;6.35;;;1.95;;
65244;SDS011;51846;48.692;2.382;2022-07-26T06:09:17;6.75;;;1.80;;
65244;SDS011;51846;48.692;2.382;2022-07-26T06:11:42;6.00;;;1.80;;
65244;SDS011;51846;48.692;2.382;2022-07-26T06:14:07;6.32;;;1.80;;
65244;SDS011;51846;48.692;2.382;2022-07-26T06:16:33;7.53;;;1.85;;
65244;SDS011;51846;48.692;2.382;2022-07-26T06:18:58;7.75;;;1.92;;
65244;SDS011;51846;48.692;2.382;2022-07-26T06:21:23;10.55;;;2.05;;
65244;SDS011;51846;48.692;2.382;2022-07-26T06:23:49;7.28;;;1.83;;
65244;SDS011;51846;48.692;2.382;2022-07-26T06:26:15;7.10;;;1.77;;
65244;SDS011;51846;48.692;2.382;2022-07-26T06:28:41;6.25;;;1.75;;
65244;SDS011;51846;48.692;2.382;2022-07-26T06:31:08;8.25;;;1.63;;
65244;SDS011;51846;48.692;2.382;2022-07-26T06:33:34;6.35;;;1.70;;
65244;SDS011;51846;48.692;2.382;2022-07-26T06:35:59;10.10;;;2.00;;
65244;SDS011;51846;48.692;2.382;2022-07-26T06:38:25;9.25;;;1.90;;
65244;SDS011;51846;48.692;2.382;2022-07-26T06:40:50;6.05;;;1.95;;
65244;SDS011;51846;48.692;2.382;2022-07-26T06:43:16;8.65;;;1.98;;
65244;SDS011;51846;48.692;2.382;2022-07-26T06:45:41;6.90;;;1.90;;
65244;SDS011;51846;48.692;2.382;2022-07-26T06:48:06;4.97;;;1.80;;
65244;SDS011;51846;48.692;2.382;2022-07-26T06:50:32;7.85;;;1.75;;
65244;SDS011;51846;48.692;2.382;2022-07-26T06:52:57;7.90;;;1.88;;
65244;SDS011;51846;48.692;2.382;2022-07-26T06:55:22;5.85;;;1.67;;
65244;SDS011;51846;48.692;2.382;2022-07-26T06:57:48;13.25;;;1.80;;
65244;SDS011;51846;48.692;2.382;2022-07-26T07:00:13;7.18;;;1.83;;
65244;SDS011;51846;48.692;2.382;2022-07-26T07:02:39;7.90;;;1.70;;
65244;SDS011;51846;48.692;2.382;2022-07-26T07:05:05;6.97;;;1.88;;
65244;SDS011;51846;48.692;2.382;2022-07-26T07:07:30;7.47;;;1.90;;
65244;SDS011;51846;48.692;2.382;2022-07-26T07:09:56;7.93;;;2.00;;
65244;SDS011;51846;48.692;2.382;2022-07-26T07:12:21;7.75;;;2.03;;
65244;SDS011;51846;48.692;2.382;2022-07-26T07:14:46;9.18;;;1.90;;
65244;SDS011;51846;48.692;2.382;2022-07-26T07:17:12;9.02;;;2.05;;
65244;SDS011;51846;48.692;2.382;2022-07-26T07:19:37;7.70;;;1.90;;
65244;SDS011;51846;48.692;2.382;2022-07-26T07:22:03;5.45;;;1.73;;
65244;SDS011;51846;48.692;2.382;2022-07-26T07:24:29;10.32;;;2.20;;
65244;SDS011;51846;48.692;2.382;2022-07-26T07:26:55;10.75;;;1.95;;
65244;SDS011;51846;48.692;2.382;2022-07-26T07:29:21;13.02;;;1.80;;
65244;SDS011;51846;48.692;2.382;2022-07-26T07:31:46;8.15;;;1.90;;
65244;SDS011;51846;48.692;2.382;2022-07-26T07:34:13;6.38;;;1.85;;
65244;SDS011;51846;48.692;2.382;2022-07-26T07:36:39;9.05;;;2.10;;
65244;SDS011;51846;48.692;2.382;2022-07-26T07:39:04;7.45;;;1.88;;
65244;SDS011;51846;48.692;2.382;2022-07-26T07:41:30;7.45;;;2.00;;
65244;SDS011;51846;48.692;2.382;2022-07-26T07:43:58;9.57;;;2.05;;
65244;SDS011;51846;48.692;2.382;2022-07-26T07:46:24;8.57;;;1.90;;
65244;SDS011;51846;48.692;2.382;2022-07-26T07:48:49;8.43;;;2.08;;
65244;SDS011;51846;48.692;2.382;2022-07-26T07:51:14;9.35;;;2.20;;
65244;SDS011;51846;48.692;2.382;2022-07-26T07:53:40;8.18;;;2.08;;
65244;SDS011;51846;48.692;2.382;2022-07-26T07:56:05;8.93;;;2.22;;
65244;SDS011;51846;48.692;2.382;2022-07-26T07:58:30;6.63;;;1.95;;
65244;SDS011;51846;48.692;2.382;2022-07-26T08:00:56;7.80;;;2.10;;
65244;SDS011;51846;48.692;2.382;2022-07-26T08:03:21;8.20;;;1.92;;
65244;SDS011;51846;48.692;2.382;2022-07-26T08:05:47;11.10;;;2.10;;
65244;SDS011;51846;48.692;2.382;2022-07-26T08:08:12;8.07;;;2.25;;
65244;SDS011;51846;48.692;2.382;2022-07-26T08:10:38;8.70;;;2.28;;
65244;SDS011;51846;48.692;2.382;2022-07-26T08:13:03;7.15;;;1.90;;
65244;SDS011;51846;48.692;2.382;2022-07-26T08:15:28;11.02;;;2.15;;
65244;SDS011;51846;48.692;2.382;2022-07-26T08:17:54;14.18;;;2.25;;
65244;SDS011;51846;48.692;2.382;2022-07-26T08:20:19;10.05;;;2.00;;
65244;SDS011;51846;48.692;2.382;2022-07-26T08:22:45;6.93;;;2.03;;
65244;SDS011;51846;48.692;2.382;2022-07-26T08:25:10;7.72;;;1.88;;
65244;SDS011;51846;48.692;2.382;2022-07-26T08:27:36;6.75;;;2.13;;
65244;SDS011;51846;48.692;2.382;2022-07-26T08:30:02;8.52;;;2.22;;
65244;SDS011;51846;48.692;2.382;2022-07-26T08:32:28;12.18;;;2.10;;
65244;SDS011;51846;48.692;2.382;2022-07-26T08:34:53;7.10;;;2.10;;
65244;SDS011;51846;48.692;2.382;2022-07-26T08:37:19;8.13;;;2.00;;
65244;SDS011;51846;48.692;2.382;2022-07-26T08:39:45;6.90;;;2.17;;
65244;SDS011;51846;48.692;2.382;2022-07-26T08:42:15;4.90;;;1.83;;
65244;SDS011;51846;48.692;2.382;2022-07-26T08:44:42;5.20;;;1.88;;
65244;SDS011;51846;48.692;2.382;2022-07-26T08:47:12;7.30;;;2.03;;
65244;SDS011;51846;48.692;2.382;2022-07-26T08:49:39;9.85;;;2.00;;
65244;SDS011;51846;48.692;2.382;2022-07-26T08:52:05;5.20;;;1.80;;
65244;SDS011;51846;48.692;2.382;2022-07-26T08:54:31;11.07;;;2.05;;
65244;SDS011;51846;48.692;2.382;2022-07-26T08:56:57;6.97;;;2.17;;
65244;SDS011;51846;48.692;2.382;2022-07-26T08:59:23;7.90;;;2.22;;
65244;SDS011;51846;48.692;2.382;2022-07-26T09:01:56;4.72;;;1.80;;
65244;SDS011;51846;48.692;2.382;2022-07-26T09:04:23;6.10;;;1.80;;
65244;SDS011;51846;48.692;2.382;2022-07-26T09:06:56;4.53;;;1.70;;
65244;SDS011;51846;48.692;2.382;2022-07-26T09:09:28;5.03;;;1.80;;
65244;SDS011;51846;48.692;2.382;2022-07-26T09:11:55;6.03;;;1.83;;
65244;SDS011;51846;48.692;2.382;2022-07-26T09:14:21;8.35;;;1.80;;
65244;SDS011;51846;48.692;2.382;2022-07-26T09:16:58;5.57;;;2.00;;
65244;SDS011;51846;48.692;2.382;2022-07-26T09:19:24;10.02;;;1.80;;
65244;SDS011;51846;48.692;2.382;2022-07-26T09:21:51;5.88;;;1.55;;
65244;SDS011;51846;48.692;2.382;2022-07-26T09:24:32;7.75;;;1.88;;
65244;SDS011;51846;48.692;2.382;2022-07-26T09:26:59;6.85;;;1.65;;
65244;SDS011;51846;48.692;2.382;2022-07-26T09:29:26;4.78;;;1.75;;
65244;SDS011;51846;48.692;2.382;2022-07-26T09:31:53;5.68;;;1.58;;
65244;SDS011;51846;48.692;2.382;2022-07-26T09:34:33;5.30;;;1.80;;
65244;SDS011;51846;48.692;2.382;2022-07-26T09:36:58;5.80;;;1.60;;
65244;SDS011;51846;48.692;2.382;2022-07-26T09:39:24;4.70;;;1.50;;
65244;SDS011;51846;48.692;2.382;2022-07-26T09:41:49;7.85;;;1.70;;
65244;SDS011;51846;48.692;2.382;2022-07-26T09:44:22;5.72;;;2.03;;
65244;SDS011;51846;48.692;2.382;2022-07-26T09:46:52;8.75;;;2.25;;
65244;SDS011;51846;48.692;2.382;2022-07-26T09:49:20;5.25;;;1.77;;
65244;SDS011;51846;48.692;2.382;2022-07-26T09:51:48;6.28;;;1.70;;
65244;SDS011;51846;48.692;2.382;2022-07-26T09:54:16;8.82;;;1.98;;
65244;SDS011;51846;48.692;2.382;2022-07-26T09:56:46;5.57;;;1.70;;
65244;SDS011;51846;48.692;2.382;2022-07-26T09:59:13;6.13;;;1.70;;
65244;SDS011;51846;48.692;2.382;2022-07-26T10:01:42;5.72;;;1.90;;
65244;SDS011;51846;48.692;2.382;2022-07-26T10:04:08;7.63;;;1.73;;
65244;SDS011;51846;48.692;2.382;2022-07-26T10:06:33;8.70;;;1.60;;
65244;SDS011;51846;48.692;2.382;2022-07-26T10:08:59;5.68;;;1.77;;
65244;SDS011;51846;48.692;2.382;2022-07-26T10:11:26;3.75;;;1.70;;
65244;SDS011;51846;48.692;2.382;2022-07-26T10:13:56;6.43;;;1.70;;
65244;SDS011;51846;48.692;2.382;2022-07-26T10:16:27;4.53;;;1.73;;
65244;SDS011;51846;48.692;2.382;2022-07-26T10:18:54;5.45;;;1.77;;
65244;SDS011;51846;48.692;2.382;2022-07-26T10:21:22;4.82;;;1.65;;
65244;SDS011;51846;48.692;2.382;2022-07-26T10:23:54;4.13;;;1.60;;
65244;SDS011;51846;48.692;2.382;2022-07-26T10:31:40;8.43;;;2.08;;
65244;SDS011;51846;48.692;2.382;2022-07-26T10:34:10;4.35;;;1.60;;
65244;SDS011;51846;48.692;2.382;2022-07-26T10:37:01;6.00;;;1.48;;
65244;SDS011;51846;48.692;2.382;2022-07-26T10:39:31;3.80;;;1.40;;
65244;SDS011;51846;48.692;2.382;2022-07-26T10:41:58;3.83;;;1.42;;
65244;SDS011;51846;48.692;2.382;2022-07-26T10:44:29;5.13;;;1.50;;
65244;SDS011;51846;48.692;2.382;2022-07-26T10:52:04;3.80;;;1.65;;
65244;SDS011;51846;48.692;2.382;2022-07-26T10:54:31;3.28;;;1.50;;
65244;SDS011;51846;48.692;2.382;2022-07-26T10:57:19;4.10;;;1.23;;
65244;SDS011;51846;48.692;2.382;2022-07-26T10:59:45;2.83;;;1.27;;
65244;SDS011;51846;48.692;2.382;2022-07-26T11:02:17;1.92;;;1.20;;
65244;SDS011;51846;48.692;2.382;2022-07-26T11:04:43;5.07;;;1.20;;
65244;SDS011;51846;48.692;2.382;2022-07-26T11:07:08;2.28;;;1.10;;
65244;SDS011;51846;48.692;2.382;2022-07-26T11:09:34;2.97;;;1.20;;
65244;SDS011;51846;48.692;2.382;2022-07-26T11:14:41;3.58;;;1.30;;
65244;SDS011;51846;48.692;2.382;2022-07-26T11:17:07;3.90;;;1.20;;
65244;SDS011;51846;48.692;2.382;2022-07-26T11:19:37;4.30;;;1.40;;
65244;SDS011;51846;48.692;2.382;2022-07-26T11:22:03;1.92;;;1.15;;
65244;SDS011;51846;48.692;2.382;2022-07-26T11:24:28;3.05;;;1.20;;
65244;SDS011;51846;48.692;2.382;2022-07-26T11:26:54;1.92;;;1.00;;
65244;SDS011;51846;48.692;2.382;2022-07-26T11:29:30;2.33;;;1.10;;
65244;SDS011;51846;48.692;2.382;2022-07-26T11:31:58;4.95;;;1.15;;
65244;SDS011;51846;48.692;2.382;2022-07-26T11:34:25;3.13;;;1.30;;
65244;SDS011;51846;48.692;2.382;2022-07-26T11:36:53;4.65;;;1.20;;
65244;SDS011;51846;48.692;2.382;2022-07-26T11:39:23;4.55;;;1.17;;
65244;SDS011;51846;48.692;2.382;2022-07-26T11:41:51;2.67;;;1.13;;
65244;SDS011;51846;48.692;2.382;2022-07-26T11:44:30;4.35;;;1.27;;
65244;SDS011;51846;48.692;2.382;2022-07-26T11:46:57;3.67;;;1.20;;
65244;SDS011;51846;48.692;2.382;2022-07-26T11:49:23;5.78;;;1.17;;
65244;SDS011;51846;48.692;2.382;2022-07-26T11:51:57;4.05;;;1.30;;
65244;SDS011;51846;48.692;2.382;2022-07-26T11:54:25;7.72;;;1.40;;
65244;SDS011;51846;48.692;2.382;2022-07-26T11:56:59;3.73;;;1.20;;
65244;SDS011;51846;48.692;2.382;2022-07-26T11:59:26;3.80;;;1.40;;
65244;SDS011;51846;48.692;2.382;2022-07-26T12:01:54;3.55;;;1.40;;
65244;SDS011;51846;48.692;2.382;2022-07-26T12:04:21;4.68;;;1.27;;
65244;SDS011;51846;48.692;2.382;2022-07-26T12:06:48;2.88;;;1.00;;
65244;SDS011;51846;48.692;2.382;2022-07-26T12:14:57;4.28;;;1.20;;
65244;SDS011;51846;48.692;2.382;2022-07-26T12:17:23;3.28;;;1.10;;
65244;SDS011;51846;48.692;2.382;2022-07-26T12:19:48;4.38;;;1.17;;
65244;SDS011;51846;48.692;2.382;2022-07-26T12:22:15;4.97;;;1.10;;
65244;SDS011;51846;48.692;2.382;2022-07-26T12:29:36;2.30;;;1.10;;
65244;SDS011;51846;48.692;2.382;2022-07-26T12:32:07;2.33;;;1.10;;
65244;SDS011;51846;48.692;2.382;2022-07-26T12:34:38;5.45;;;1.10;;
65244;SDS011;51846;48.692;2.382;2022-07-26T12:37:08;2.50;;;1.13;;
65244;SDS011;51846;48.692;2.382;2022-07-26T12:39:38;3.50;;;1.15;;
65244;SDS011;51846;48.692;2.382;2022-07-26T12:42:20;4.60;;;1.10;;
65244;SDS011;51846;48.692;2.382;2022-07-26T12:44:49;3.50;;;1.10;;
65244;SDS011;51846;48.692;2.382;2022-07-26T12:47:15;4.60;;;1.20;;
65244;SDS011;51846;48.692;2.382;2022-07-26T12:49:40;2.90;;;1.20;;
65244;SDS011;51846;48.692;2.382;2022-07-26T12:52:06;2.60;;;1.10;;
65244;SDS011;51846;48.692;2.382;2022-07-26T12:54:31;2.67;;;1.20;;
65244;SDS011;51846;48.692;2.382;2022-07-26T12:56:56;2.13;;;1.10;;
65244;SDS011;51846;48.692;2.382;2022-07-26T12:59:22;5.10;;;1.10;;
65244;SDS011;51846;48.692;2.382;2022-07-26T13:01:47;4.97;;;1.20;;
65244;SDS011;51846;48.692;2.382;2022-07-26T13:04:13;2.90;;;1.13;;
65244;SDS011;51846;48.692;2.382;2022-07-26T13:06:38;2.00;;;1.10;;
65244;SDS011;51846;48.692;2.382;2022-07-26T13:09:03;2.65;;;1.00;;
65244;SDS011;51846;48.692;2.382;2022-07-26T13:11:29;4.15;;;1.02;;
65244;SDS011;51846;48.692;2.382;2022-07-26T13:13:55;2.72;;;1.10;;
65244;SDS011;51846;48.692;2.382;2022-07-26T13:16:21;4.03;;;1.30;;
65244;SDS011;51846;48.692;2.382;2022-07-26T13:18:46;2.67;;;1.15;;
65244;SDS011;51846;48.692;2.382;2022-07-26T13:21:12;4.90;;;1.27;;
65244;SDS011;51846;48.692;2.382;2022-07-26T13:23:37;4.75;;;1.30;;
65244;SDS011;51846;48.692;2.382;2022-07-26T13:26:02;3.88;;;1.23;;
65244;SDS011;51846;48.692;2.382;2022-07-26T13:28:28;5.32;;;1.10;;
65244;SDS011;51846;48.692;2.382;2022-07-26T13:30:53;3.75;;;1.23;;
65244;SDS011;51846;48.692;2.382;2022-07-26T13:33:19;3.42;;;1.40;;
65244;SDS011;51846;48.692;2.382;2022-07-26T13:35:44;3.22;;;1.20;;
65244;SDS011;51846;48.692;2.382;2022-07-26T13:38:09;4.20;;;1.20;;
65244;SDS011;51846;48.692;2.382;2022-07-26T13:40:35;5.60;;;1.30;;
65244;SDS011;51846;48.692;2.382;2022-07-26T13:43:00;6.53;;;1.20;;
65244;SDS011;51846;48.692;2.382;2022-07-26T13:45:26;5.65;;;1.20;;
65244;SDS011;51846;48.692;2.382;2022-07-26T13:47:51;4.20;;;1.20;;
65244;SDS011;51846;48.692;2.382;2022-07-26T13:50:17;3.65;;;1.02;;
65244;SDS011;51846;48.692;2.382;2022-07-26T13:52:42;2.00;;;1.10;;
65244;SDS011;51846;48.692;2.382;2022-07-26T13:55:08;3.17;;;1.23;;
65244;SDS011;51846;48.692;2.382;2022-07-26T13:57:33;3.63;;;1.10;;
65244;SDS011;51846;48.692;2.382;2022-07-26T13:59:58;2.25;;;1.10;;
65244;SDS011;51846;48.692;2.382;2022-07-26T14:02:24;3.75;;;1.17;;
65244;SDS011;51846;48.692;2.382;2022-07-26T14:04:49;4.10;;;1.20;;
65244;SDS011;51846;48.692;2.382;2022-07-26T14:07:15;6.60;;;1.30;;
65244;SDS011;51846;48.692;2.382;2022-07-26T14:09:40;5.82;;;1.20;;
65244;SDS011;51846;48.692;2.382;2022-07-26T14:12:05;5.15;;;1.23;;
65244;SDS011;51846;48.692;2.382;2022-07-26T14:14:31;3.17;;;1.17;;
65244;SDS011;51846;48.692;2.382;2022-07-26T14:16:56;3.85;;;1.20;;
65244;SDS011;51846;48.692;2.382;2022-07-26T14:19:22;3.17;;;1.25;;
65244;SDS011;51846;48.692;2.382;2022-07-26T14:21:47;3.95;;;1.15;;
65244;SDS011;51846;48.692;2.382;2022-07-26T14:24:14;3.42;;;1.30;;
65244;SDS011;51846;48.692;2.382;2022-07-26T14:26:40;3.08;;;1.20;;
65244;SDS011;51846;48.692;2.382;2022-07-26T14:29:05;1.98;;;1.10;;
65244;SDS011;51846;48.692;2.382;2022-07-26T14:31:31;2.85;;;1.30;;
65244;SDS011;51846;48.692;2.382;2022-07-26T14:33:56;3.55;;;1.40;;
65244;SDS011;51846;48.692;2.382;2022-07-26T14:36:22;2.63;;;1.20;;
65244;SDS011;51846;48.692;2.382;2022-07-26T14:38:47;4.25;;;1.20;;
65244;SDS011;51846;48.692;2.382;2022-07-26T14:41:14;3.58;;;1.23;;
65244;SDS011;51846;48.692;2.382;2022-07-26T14:43:39;2.40;;;1.20;;
65244;SDS011;51846;48.692;2.382;2022-07-26T14:46:06;2.08;;;1.17;;
65244;SDS011;51846;48.692;2.382;2022-07-26T14:48:32;2.55;;;1.30;;
65244;SDS011;51846;48.692;2.382;2022-07-26T14:50:58;3.42;;;1.42;;
65244;SDS011;51846;48.692;2.382;2022-07-26T14:53:24;4.32;;;1.63;;
65244;SDS011;51846;48.692;2.382;2022-07-26T14:55:50;5.03;;;1.20;;
65244;SDS011;51846;48.692;2.382;2022-07-26T14:58:15;2.67;;;1.40;;
65244;SDS011;51846;48.692;2.382;2022-07-26T15:00:41;3.67;;;1.40;;
65244;SDS011;51846;48.692;2.382;2022-07-26T15:03:07;4.88;;;1.60;;
65244;SDS011;51846;48.692;2.382;2022-07-26T15:05:32;3.90;;;1.30;;
65244;SDS011;51846;48.692;2.382;2022-07-26T15:07:58;4.38;;;1.17;;